Time;durP1;ratioP1;P1;durP2;ratioP2;P2;SDS_P1;SDS_P2;PMS_P1;PMS_P2;Temp;Humidity;BMP_temperature;BMP_pressure;BME280_temperature;BME280_humidity;BME280_pressure;Samples;Min_cycle;Max_cycle;Signal;HPM_P1;HPM_P2
2023/12/13 00:00:07;;;;;;;36.88;22.13;;;;;;;8.67;78.17;100660.75;5049787;28;20116;-81
2023/12/13 00:02:33;;;;;;;42.80;23.98;;;;;;;8.71;77.76;100664.88;5064138;28;20527;-80
2023/12/13 00:04:58;;;;;;;36.05;23.25;;;;;;;8.65;77.14;100657.28;5050304;28;20111;-82
2023/12/13 00:07:24;;;;;;;45.30;26.52;;;;;;;8.62;77.07;100665.56;5048749;28;20033;-82
2023/12/13 00:09:50;;;;;;;46.72;26.40;;;;;;;8.67;77.19;100674.16;5050162;28;20104;-82
2023/12/13 00:12:16;;;;;;;45.35;26.50;;;;;;;8.63;76.92;100672.66;5049804;28;20566;-83
2023/12/13 00:14:41;;;;;;;47.08;28.35;;;;;;;8.61;76.95;100677.28;5050608;28;20033;-82
2023/12/13 00:17:10;;;;;;;53.85;28.23;;;;;;;8.59;76.65;100676.50;5050014;28;20051;-83
2023/12/13 00:19:35;;;;;;;53.22;28.65;;;;;;;8.53;76.67;100671.59;5065970;28;20021;-80
2023/12/13 00:22:00;;;;;;;55.17;29.67;;;;;;;8.46;76.96;100664.97;5074630;28;20025;-80
2023/12/13 00:24:26;;;;;;;47.75;27.35;;;;;;;8.38;76.85;100669.19;5055949;28;20044;-80
2023/12/13 00:26:51;;;;;;;49.33;27.75;;;;;;;8.25;77.56;100658.44;5050241;28;20063;-81
2023/12/13 00:29:17;;;;;;;43.00;26.42;;;;;;;8.13;78.00;100643.25;5049885;28;20056;-81
2023/12/13 00:31:43;;;;;;;53.03;27.70;;;;;;;8.28;78.04;100665.44;5050402;28;20043;-82
2023/12/13 00:34:08;;;;;;;47.47;28.88;;;;;;;8.20;78.03;100652.53;5049713;28;20027;-81
2023/12/13 00:36:33;;;;;;;41.67;26.80;;;;;;;8.26;78.11;100662.81;5049877;28;20443;-81
2023/12/13 00:38:59;;;;;;;41.38;26.02;;;;;;;8.26;77.89;100657.47;5049487;28;20028;-80
2023/12/13 00:41:25;;;;;;;41.13;27.42;;;;;;;8.17;78.52;100642.91;5049519;28;20416;-81
2023/12/13 00:43:50;;;;;;;41.80;25.35;;;;;;;8.25;78.61;100655.78;5048893;28;20078;-82
2023/12/13 00:46:19;;;;;;;35.97;24.30;;;;;;;8.30;78.30;100661.69;5049546;28;20033;-81
2023/12/13 00:48:47;;;;;;;42.70;23.88;;;;;;;8.27;78.85;100664.53;5049521;28;20043;-81
2023/12/13 00:51:20;;;;;;;36.10;22.77;;;;;;;8.29;78.53;100651.09;5049045;28;20745;-81
2023/12/13 00:53:46;;;;;;;36.63;24.48;;;;;;;8.24;78.72;100648.69;5049030;28;20031;-82
2023/12/13 00:56:12;;;;;;;33.55;20.70;;;;;;;8.10;78.65;100622.03;5049147;28;20025;-83
2023/12/13 00:58:38;;;;;;;36.08;21.13;;;;;;;8.22;78.96;100639.91;5048117;28;20031;-82
2023/12/13 01:01:04;;;;;;;33.33;22.45;;;;;;;8.15;79.11;100628.78;5049153;28;20037;-82
2023/12/13 01:03:30;;;;;;;35.45;21.25;;;;;;;8.08;79.16;100608.72;5050008;28;20483;-81
2023/12/13 01:05:55;;;;;;;33.25;20.02;;;;;;;8.18;79.31;100616.97;5050299;28;20028;-82
2023/12/13 01:08:21;;;;;;;42.15;21.58;;;;;;;8.25;79.57;100623.63;5051383;28;20033;-80
2023/12/13 01:10:46;;;;;;;32.42;21.60;;;;;;;8.28;79.46;100623.44;5074375;28;20028;-79
2023/12/13 01:13:12;;;;;;;38.63;21.77;;;;;;;8.25;79.23;100614.72;5069868;28;20065;-82
2023/12/13 01:15:37;;;;;;;42.22;22.25;;;;;;;8.30;79.23;100620.63;5049069;28;20868;-80
2023/12/13 01:18:03;;;;;;;35.05;20.77;;;;;;;8.29;78.74;100619.75;5048877;28;20533;-82
2023/12/13 01:20:29;;;;;;;31.17;20.13;;;;;;;8.28;78.77;100618.06;5048681;28;20468;-81
2023/12/13 01:22:55;;;;;;;35.05;21.33;;;;;;;8.31;78.15;100606.28;5048737;28;20033;-82
2023/12/13 01:25:21;;;;;;;33.63;18.55;;;;;;;8.35;78.31;100611.28;5048506;28;20170;-81
2023/12/13 01:27:46;;;;;;;35.78;20.38;;;;;;;8.39;77.90;100594.03;5048291;28;20619;-81
2023/12/13 01:30:12;;;;;;;36.13;19.70;;;;;;;8.25;77.72;100572.72;5048316;28;20120;-81
2023/12/13 01:32:37;;;;;;;29.17;18.40;;;;;;;8.40;76.72;100600.25;5048300;28;20033;-82
2023/12/13 01:35:05;;;;;;;36.42;19.50;;;;;;;8.42;76.34;100599.16;5048422;28;20116;-80
2023/12/13 01:37:30;;;;;;;40.60;17.77;;;;;;;8.44;75.71;100597.22;5048043;28;20029;-80
2023/12/13 01:39:56;;;;;;;34.78;19.13;;;;;;;8.28;75.71;100561.81;5048205;28;20039;-82
2023/12/13 01:42:25;;;;;;;37.40;19.50;;;;;;;8.26;75.72;100565.50;5048357;28;20531;-79
2023/12/13 01:44:51;;;;;;;28.42;18.08;;;;;;;8.48;75.49;100593.34;5047962;28;20036;-80
2023/12/13 01:47:17;;;;;;;35.28;20.02;;;;;;;8.51;75.72;100598.47;5045751;28;20051;-81
2023/12/13 01:49:45;;;;;;;32.38;19.52;;;;;;;8.43;75.50;100586.63;5048286;28;20033;-81
2023/12/13 01:52:11;;;;;;;33.55;20.40;;;;;;;8.32;75.22;100568.63;5048160;28;20502;-83
2023/12/13 01:54:37;;;;;;;35.13;18.35;;;;;;;8.11;75.51;100538.00;5048718;28;20067;-82
2023/12/13 01:57:04;;;;;;;38.67;22.52;;;;;;;8.31;75.09;100580.34;5049210;28;20109;-82
2023/12/13 01:59:32;;;;;;;34.08;20.13;;;;;;;8.33;75.32;100581.06;5055041;28;20025;-79
2023/12/13 02:01:58;;;;;;;33.05;19.88;;;;;;;8.28;74.87;100569.84;5074849;28;20033;-83
2023/12/13 02:04:27;;;;;;;38.80;20.40;;;;;;;8.33;74.96;100578.38;5066090;28;20429;-81
2023/12/13 02:06:53;;;;;;;35.65;21.13;;;;;;;8.37;75.05;100573.66;5059523;28;20025;-82
2023/12/13 02:09:19;;;;;;;36.25;18.77;;;;;;;8.21;73.89;100563.19;5050021;28;20551;-81
2023/12/13 02:11:45;;;;;;;29.77;18.13;;;;;;;8.07;73.77;100572.19;5051631;28;20040;-81
2023/12/13 02:14:12;;;;;;;29.80;17.60;;;;;;;8.03;74.26;100561.81;5052164;28;20032;-81
2023/12/13 02:16:38;;;;;;;29.42;17.65;;;;;;;7.95;73.93;100535.59;5050387;28;20124;-82
2023/12/13 02:19:03;;;;;;;47.55;18.70;;;;;;;7.95;73.89;100524.88;5052611;28;20040;-81
2023/12/13 02:21:30;;;;;;;32.28;17.83;;;;;;;8.08;73.28;100546.28;5051627;28;20044;-81
2023/12/13 02:24:00;;;;;;;33.28;19.17;;;;;;;8.04;73.38;100552.84;5051575;28;20495;-81
2023/12/13 02:26:26;;;;;;;43.75;18.40;;;;;;;8.05;73.39;100550.03;5051813;28;20055;-81
2023/12/13 02:28:53;;;;;;;32.33;17.60;;;;;;;7.83;73.15;100508.88;5051572;28;20025;-81
2023/12/13 02:31:19;;;;;;;30.02;17.08;;;;;;;8.10;73.68;100549.72;5051449;28;20057;-81
2023/12/13 02:33:45;;;;;;;31.77;16.77;;;;;;;7.99;73.61;100533.53;5051446;28;20021;-82
2023/12/13 02:36:11;;;;;;;37.55;16.88;;;;;;;8.15;73.51;100561.81;5051631;28;20039;-81
2023/12/13 02:38:37;;;;;;;30.40;16.98;;;;;;;8.20;73.76;100580.19;5051387;28;20392;-82
2023/12/13 02:41:02;;;;;;;25.80;16.17;;;;;;;8.15;73.67;100593.09;5051728;28;20025;-80
2023/12/13 02:43:30;;;;;;;38.20;16.17;;;;;;;8.12;73.99;100591.50;5051462;28;20048;-81
2023/12/13 02:45:55;;;;;;;34.70;16.85;;;;;;;8.07;73.38;100603.50;5051779;28;20033;-81
2023/12/13 02:48:21;;;;;;;43.15;18.20;;;;;;;7.98;73.88;100585.41;5051856;28;20056;-80
2023/12/13 02:50:48;;;;;;;29.42;15.68;;;;;;;7.96;74.59;100601.56;5070311;28;20044;-79
2023/12/13 02:53:14;;;;;;;27.35;16.50;;;;;;;7.87;74.43;100599.56;5076511;28;20048;-80
2023/12/13 02:55:39;;;;;;;27.23;15.98;;;;;;;7.89;74.33;100597.59;5055039;28;20021;-82
2023/12/13 02:58:05;;;;;;;26.30;15.80;;;;;;;7.79;73.82;100593.88;5051753;28;20040;-81
2023/12/13 03:00:30;;;;;;;37.03;15.60;;;;;;;7.52;74.23;100574.41;5051278;28;20481;-82
2023/12/13 03:02:57;;;;;;;34.58;18.30;;;;;;;7.62;74.68;100603.09;5051120;28;20025;-81
2023/12/13 03:05:23;;;;;;;35.13;19.52;;;;;;;7.32;75.32;100559.72;5050821;28;20028;-82
2023/12/13 03:07:49;;;;;;;41.67;19.42;;;;;;;7.73;75.43;100614.88;5050812;28;20033;-81
2023/12/13 03:10:14;;;;;;;32.10;20.05;;;;;;;7.73;75.63;100621.09;5050529;28;20067;-81
2023/12/13 03:12:40;;;;;;;33.65;19.02;;;;;;;7.77;75.85;100621.75;5051086;28;20512;-82
2023/12/13 03:15:06;;;;;;;38.63;19.52;;;;;;;7.54;76.42;100623.31;5050741;28;20014;-80
2023/12/13 03:17:31;;;;;;;29.38;17.42;;;;;;;7.54;76.62;100609.94;5050705;28;20044;-81
2023/12/13 03:19:57;;;;;;;27.85;16.75;;;;;;;7.62;76.30;100603.09;5050020;28;20408;-82
2023/12/13 03:22:23;;;;;;;31.85;17.45;;;;;;;7.70;76.46;100599.03;5049959;28;20060;-82
2023/12/13 03:24:48;;;;;;;27.30;16.30;;;;;;;7.48;75.94;100573.75;5050237;28;20017;-79
2023/12/13 03:27:14;;;;;;;37.72;17.55;;;;;;;7.55;76.00;100580.38;5050548;28;20562;-80
2023/12/13 03:29:39;;;;;;;28.13;16.80;;;;;;;7.77;75.52;100616.38;5050546;28;20036;-80
2023/12/13 03:32:05;;;;;;;36.45;18.15;;;;;;;7.69;75.63;100603.53;5050770;28;20076;-79
2023/12/13 03:34:31;;;;;;;36.53;20.23;;;;;;;7.71;75.29;100600.72;5051034;28;20420;-81
2023/12/13 03:36:56;;;;;;;43.28;20.35;;;;;;;7.65;74.82;100589.50;5051287;28;20021;-81
2023/12/13 03:39:22;;;;;;;38.78;21.13;;;;;;;7.48;75.12;100578.25;5050862;28;20025;-82
2023/12/13 03:41:47;;;;;;;44.45;23.00;;;;;;;7.67;74.71;100611.63;5073746;28;20032;-80
2023/12/13 03:44:13;;;;;;;46.28;25.90;;;;;;;7.60;74.84;100599.66;5071546;28;20067;-82
2023/12/13 03:46:38;;;;;;;51.60;26.85;;;;;;;7.55;73.94;100599.13;5048686;28;20073;-82
2023/12/13 03:49:04;;;;;;;52.15;27.25;;;;;;;7.56;74.37;100606.19;5050300;28;20660;-82
2023/12/13 03:51:29;;;;;;;41.50;24.55;;;;;;;7.38;73.62;100588.72;5050489;28;20017;-78
2023/12/13 03:53:55;;;;;;;45.03;23.65;;;;;;;7.25;73.82;100568.28;5049871;28;20477;-80
2023/12/13 03:56:21;;;;;;;39.25;22.00;;;;;;;7.41;73.48;100609.91;5050091;28;20021;-81
2023/12/13 03:58:46;;;;;;;34.58;21.05;;;;;;;7.34;73.81;100607.78;5050000;28;20440;-82
2023/12/13 04:01:12;;;;;;;29.85;18.30;;;;;;;7.17;73.56;100595.56;5049930;28;20022;-82
2023/12/13 04:03:37;;;;;;;37.38;18.85;;;;;;;7.13;73.72;100610.06;5050112;28;20040;-81
2023/12/13 04:06:03;;;;;;;33.63;18.73;;;;;;;7.13;73.81;100618.09;5049970;28;20048;-83
2023/12/13 04:08:28;;;;;;;28.40;17.13;;;;;;;7.06;74.65;100608.78;5049328;28;20060;-82
2023/12/13 04:10:54;;;;;;;26.45;14.20;;;;;;;7.02;74.86;100616.16;5030442;28;20045;-81
2023/12/13 04:13:19;;;;;;;27.05;15.07;;;;;;;6.81;75.65;100579.31;5050243;28;20021;-80
2023/12/13 04:15:45;;;;;;;24.85;14.45;;;;;;;7.04;75.54;100610.69;5030777;28;20109;-80
2023/12/13 04:18:11;;;;;;;24.60;15.55;;;;;;;7.04;75.90;100600.88;5050046;28;20044;-84
2023/12/13 04:20:36;;;;;;;25.55;14.70;;;;;;;6.95;75.77;100590.78;5049559;28;20036;-79
2023/12/13 04:23:02;;;;;;;29.42;16.27;;;;;;;7.09;75.86;100619.28;5049338;28;20036;-78
2023/12/13 04:25:27;;;;;;;28.50;14.88;;;;;;;7.05;75.55;100621.31;5063874;28;20053;-77
2023/12/13 04:27:53;;;;;;;41.38;14.98;;;;;;;7.12;75.95;100616.41;5049289;28;20044;-75
2023/12/13 04:30:18;;;;;;;25.52;15.82;;;;;;;7.02;75.61;100604.59;5051493;28;20029;-78
2023/12/13 04:32:44;;;;;;;38.10;18.90;;;;;;;7.16;76.02;100625.91;5058397;28;20017;-78
2023/12/13 04:35:10;;;;;;;76.05;33.95;;;;;;;7.19;75.55;100625.72;5050776;28;20037;-78
2023/12/13 04:37:36;;;;;;;137.95;55.90;;;;;;;7.24;75.66;100628.94;5057379;28;20025;-78
2023/12/13 04:40:03;;;;;;;116.10;45.53;;;;;;;7.19;75.64;100609.66;5057751;28;20033;-78
2023/12/13 04:42:28;;;;;;;68.78;25.17;;;;;;;7.24;75.19;100634.31;5048857;28;20033;-76
2023/12/13 04:44:54;;;;;;;41.63;18.95;;;;;;;7.02;75.00;100602.78;5049016;28;20111;-79
2023/12/13 04:47:20;;;;;;;36.03;17.63;;;;;;;7.16;75.17;100631.25;5049028;28;20405;-83
2023/12/13 04:49:45;;;;;;;54.78;19.15;;;;;;;7.09;75.43;100636.16;5048792;28;20021;-83
2023/12/13 04:52:11;;;;;;;42.63;19.15;;;;;;;7.12;75.44;100640.47;5048953;28;20025;-82
2023/12/13 04:54:37;;;;;;;54.00;19.05;;;;;;;7.05;75.75;100634.69;5048937;28;20037;-82
2023/12/13 04:57:06;;;;;;;49.08;19.33;;;;;;;7.04;75.65;100634.75;5048931;28;20082;-83
2023/12/13 04:59:31;;;;;;;51.42;21.08;;;;;;;7.07;76.26;100637.22;5049146;28;20040;-79
2023/12/13 05:01:57;;;;;;;58.55;23.23;;;;;;;7.06;76.27;100628.34;5048975;28;20028;-84
2023/12/13 05:04:23;;;;;;;46.80;25.08;;;;;;;6.70;75.97;100584.50;5049425;28;20481;-85
2023/12/13 05:06:48;;;;;;;44.03;22.25;;;;;;;6.98;76.73;100629.81;5049641;28;20036;-87
2023/12/13 05:09:14;;;;;;;56.78;23.27;;;;;;;6.91;76.67;100628.53;5050575;28;20040;-80
2023/12/13 05:11:39;;;;;;;45.92;24.63;;;;;;;6.86;76.83;100633.31;5049827;28;20685;-80
2023/12/13 05:14:05;;;;;;;42.63;24.30;;;;;;;6.91;77.37;100625.88;5047314;28;20029;-81
2023/12/13 05:16:30;;;;;;;52.28;24.45;;;;;;;6.93;78.02;100618.59;5050970;28;20028;-82
2023/12/13 05:18:56;;;;;;;51.90;26.25;;;;;;;6.99;78.14;100618.19;5051177;28;20488;-81
2023/12/13 05:21:21;;;;;;;58.88;23.65;;;;;;;7.01;77.68;100616.25;5061498;28;20013;-78
2023/12/13 05:23:47;;;;;;;44.83;21.60;;;;;;;7.04;78.00;100624.06;5060219;28;20047;-77
2023/12/13 05:26:13;;;;;;;46.20;22.52;;;;;;;7.01;77.53;100622.47;5054428;28;20080;-81
2023/12/13 05:28:39;;;;;;;42.70;21.73;;;;;;;7.09;77.65;100632.66;5049584;28;20092;-82
2023/12/13 05:31:04;;;;;;;40.17;22.42;;;;;;;6.80;77.36;100596.28;5048984;28;20097;-78
2023/12/13 05:33:30;;;;;;;51.15;28.75;;;;;;;7.01;77.86;100632.28;5048032;28;20033;-77
2023/12/13 05:35:55;;;;;;;58.40;31.58;;;;;;;7.01;78.20;100638.50;5048110;28;20189;-77
2023/12/13 05:38:21;;;;;;;68.05;37.15;;;;;;;6.92;78.10;100622.22;5048352;28;20082;-76
2023/12/13 05:40:46;;;;;;;74.10;39.67;;;;;;;6.92;78.06;100627.56;5048454;28;20625;-76
2023/12/13 05:43:12;;;;;;;65.90;39.22;;;;;;;7.06;78.26;100660.44;5047958;28;20609;-77
2023/12/13 05:45:38;;;;;;;81.88;43.40;;;;;;;7.03;78.71;100657.13;5049520;28;20059;-81
2023/12/13 05:48:04;;;;;;;78.32;42.17;;;;;;;7.02;79.20;100650.94;5048518;28;20056;-77
2023/12/13 05:50:30;;;;;;;78.55;43.65;;;;;;;7.08;78.94;100655.00;5047691;28;20731;-81
2023/12/13 05:52:56;;;;;;;83.03;41.85;;;;;;;7.13;79.09;100645.72;5051181;28;20103;-81
2023/12/13 05:55:21;;;;;;;86.15;42.00;;;;;;;7.21;79.62;100650.56;5049955;28;20555;-82
2023/12/13 05:57:47;;;;;;;76.07;40.72;;;;;;;7.11;79.77;100620.03;5049826;28;20408;-82
2023/12/13 06:00:13;;;;;;;92.53;42.58;;;;;;;7.34;79.86;100647.91;5049935;28;20025;-81
2023/12/13 06:02:39;;;;;;;67.95;39.95;;;;;;;7.44;79.74;100636.47;5048934;28;20033;-81
2023/12/13 06:05:04;;;;;;;64.70;37.35;;;;;;;7.50;79.86;100630.69;5049762;28;20382;-80
2023/12/13 06:07:30;;;;;;;84.65;39.92;;;;;;;7.49;79.33;100596.84;5050482;28;20067;-82
2023/12/13 06:09:56;;;;;;;77.65;34.60;;;;;;;7.71;80.04;100616.78;5051411;28;20063;-81
2023/12/13 06:12:21;;;;;;;65.18;34.42;;;;;;;7.92;80.46;100617.97;5070863;28;20037;-80
2023/12/13 06:14:47;;;;;;;76.10;35.40;;;;;;;7.97;80.15;100618.50;5065185;28;20382;-81
2023/12/13 06:17:13;;;;;;;61.55;36.10;;;;;;;7.89;80.21;100588.75;5048711;28;20017;-82
2023/12/13 06:19:39;;;;;;;60.50;34.13;;;;;;;8.10;79.66;100609.47;5048516;28;20033;-81
2023/12/13 06:22:07;;;;;;;59.05;33.83;;;;;;;8.20;79.70;100604.31;5048298;28;20037;-82
2023/12/13 06:24:32;;;;;;;59.50;31.50;;;;;;;8.34;79.93;100614.94;5048000;28;20501;-81
2023/12/13 06:26:58;;;;;;;71.00;31.77;;;;;;;8.46;79.88;100606.00;5048424;28;20028;-82
2023/12/13 06:29:23;;;;;;;64.93;33.53;;;;;;;8.69;79.28;100613.22;5047586;28;20025;-82
2023/12/13 06:31:49;;;;;;;83.70;32.15;;;;;;;8.79;79.40;100617.91;5047781;28;20028;-83
2023/12/13 06:34:15;;;;;;;69.47;36.13;;;;;;;8.80;78.64;100587.44;5047393;28;20033;-82
2023/12/13 06:36:40;;;;;;;88.45;38.90;;;;;;;8.91;78.73;100592.84;5047623;28;20029;-82
2023/12/13 06:39:11;;;;;;;65.35;36.58;;;;;;;9.00;78.60;100601.06;5047837;28;20036;-81
2023/12/13 06:41:37;;;;;;;69.50;33.50;;;;;;;9.19;78.48;100608.56;5045501;28;20458;-81
2023/12/13 06:44:03;;;;;;;76.82;35.90;;;;;;;9.37;78.24;100620.59;5048160;28;20099;-84
2023/12/13 06:46:29;;;;;;;96.82;40.45;;;;;;;9.47;77.78;100602.81;5044947;28;20505;-82
2023/12/13 06:48:55;;;;;;;69.57;33.55;;;;;;;9.51;77.39;100601.56;5047464;28;20028;-82
2023/12/13 06:51:20;;;;;;;63.47;34.83;;;;;;;9.59;76.90;100598.31;5047703;28;20025;-82
2023/12/13 06:53:46;;;;;;;77.68;37.13;;;;;;;9.38;76.80;100541.78;5047120;28;20353;-83
2023/12/13 06:56:12;;;;;;;69.40;36.40;;;;;;;9.74;76.50;100573.81;5051098;28;20074;-81
2023/12/13 06:58:38;;;;;;;80.97;35.67;;;;;;;9.78;76.17;100577.94;5051153;28;20036;-82
2023/12/13 07:01:04;;;;;;;78.30;37.88;;;;;;;9.74;75.69;100570.25;5067791;28;20063;-80
2023/12/13 07:03:29;;;;;;;83.90;39.53;;;;;;;9.79;75.50;100568.91;5075711;28;20119;-80
2023/12/13 07:05:55;;;;;;;125.15;67.32;;;;;;;9.77;75.82;100560.13;5055606;28;20067;-82
2023/12/13 07:08:20;;;;;;;121.55;54.20;;;;;;;9.83;75.88;100556.97;5051051;28;20535;-82
2023/12/13 07:10:46;;;;;;;99.40;46.33;;;;;;;9.60;75.56;100514.94;5051901;28;20032;-83
2023/12/13 07:13:11;;;;;;;83.13;40.75;;;;;;;10.06;75.69;100575.78;5050672;28;20048;-82
2023/12/13 07:15:37;;;;;;;78.85;36.55;;;;;;;10.12;75.63;100594.09;5051072;28;20385;-83
2023/12/13 07:18:03;;;;;;;90.15;46.40;;;;;;;10.18;75.12;100601.69;5051012;28;20602;-82
2023/12/13 07:20:30;;;;;;;86.80;42.92;;;;;;;10.21;75.29;100612.19;5050584;28;20049;-83
2023/12/13 07:22:59;;;;;;;77.43;40.25;;;;;;;10.35;75.81;100617.31;5050799;28;20029;-82
2023/12/13 07:25:25;;;;;;;88.88;41.05;;;;;;;10.42;75.53;100605.09;5050774;28;20122;-83
2023/12/13 07:27:50;;;;;;;98.60;40.38;;;;;;;10.48;75.60;100583.09;5050774;28;20485;-81
2023/12/13 07:30:16;;;;;;;99.50;38.55;;;;;;;10.49;75.81;100567.81;5050147;28;20024;-81
2023/12/13 07:32:43;;;;;;;71.07;31.05;;;;;;;10.58;75.56;100553.59;5050113;28;20025;-83
2023/12/13 07:35:09;;;;;;;69.05;31.17;;;;;;;10.77;74.91;100567.22;5047958;28;20751;-83
2023/12/13 07:37:35;;;;;;;70.85;27.27;;;;;;;10.84;75.28;100569.28;5050485;28;20029;-83
2023/12/13 07:40:06;;;;;;;52.33;24.33;;;;;;;10.90;75.09;100582.22;5052049;28;20096;-83
2023/12/13 07:42:32;;;;;;;35.42;19.00;;;;;;;10.82;75.48;100557.78;5050538;28;20024;-83
2023/12/13 07:44:58;;;;;;;41.13;18.73;;;;;;;11.02;76.20;100572.25;5050838;28;20033;-81
2023/12/13 07:47:24;;;;;;;48.92;18.52;;;;;;;11.14;77.23;100589.22;5051428;28;20808;-82
2023/12/13 07:49:50;;;;;;;32.47;17.83;;;;;;;11.27;77.78;100587.19;5052588;28;20033;-81
2023/12/13 07:52:15;;;;;;;32.85;19.00;;;;;;;11.22;78.36;100557.13;5075000;28;20119;-82
2023/12/13 07:54:42;;;;;;;57.75;19.77;;;;;;;11.50;78.22;100564.53;5070889;28;20186;-80
2023/12/13 07:57:08;;;;;;;45.90;18.17;;;;;;;11.55;79.25;100559.63;5050378;28;20036;-83
2023/12/13 07:59:33;;;;;;;42.47;16.95;;;;;;;11.69;79.74;100558.41;5049793;28;20029;-81
2023/12/13 08:01:59;;;;;;;29.58;16.48;;;;;;;11.71;79.81;100535.75;5049658;28;20016;-81
2023/12/13 08:04:24;;;;;;;46.00;17.42;;;;;;;11.93;80.11;100558.97;5049710;28;20524;-82
2023/12/13 08:06:50;;;;;;;30.80;15.18;;;;;;;11.93;80.07;100549.06;5049313;28;20439;-82
2023/12/13 08:09:18;;;;;;;27.23;17.23;;;;;;;12.02;80.81;100549.25;5049773;28;20584;-82
2023/12/13 08:11:44;;;;;;;40.00;17.65;;;;;;;12.19;80.67;100564.78;5049457;28;20024;-82
2023/12/13 08:14:09;;;;;;;33.22;18.90;;;;;;;12.29;80.37;100558.41;5049495;28;20036;-82
2023/12/13 08:16:35;;;;;;;34.95;18.98;;;;;;;12.40;80.48;100549.38;5049403;28;20024;-83
2023/12/13 08:19:01;;;;;;;44.83;16.95;;;;;;;12.45;79.20;100539.84;5049874;28;20032;-83
2023/12/13 08:21:26;;;;;;;65.90;16.92;;;;;;;12.70;77.62;100559.22;5049777;28;20031;-83
2023/12/13 08:23:52;;;;;;;58.00;17.98;;;;;;;12.78;75.81;100549.41;5049447;28;20107;-81
2023/12/13 08:26:19;;;;;;;47.78;17.95;;;;;;;12.82;74.64;100531.94;5049243;28;20134;-82
2023/12/13 08:28:44;;;;;;;57.10;16.27;;;;;;;12.88;73.75;100520.59;5049427;28;20035;-81
2023/12/13 08:31:11;;;;;;;49.40;15.95;;;;;;;12.72;73.28;100493.31;5049495;28;20029;-83
2023/12/13 08:33:40;;;;;;;55.05;15.15;;;;;;;12.91;73.72;100539.19;5049442;28;20059;-81
2023/12/13 08:36:13;;;;;;;54.75;17.67;;;;;;;12.91;74.20;100538.34;5049700;28;20033;-82
2023/12/13 08:38:42;;;;;;;82.40;18.25;;;;;;;12.86;74.98;100528.00;5049980;28;20021;-81
2023/12/13 08:41:09;;;;;;;40.95;13.98;;;;;;;12.91;75.11;100550.00;5058588;28;20089;-82
2023/12/13 08:43:35;;;;;;;39.63;15.05;;;;;;;12.94;75.35;100546.16;5074481;28;20093;-80
2023/12/13 08:46:01;;;;;;;32.10;14.52;;;;;;;12.77;74.89;100531.53;5062936;28;20048;-82
2023/12/13 08:48:27;;;;;;;53.70;15.50;;;;;;;12.70;75.46;100503.41;5049502;28;20044;-81
2023/12/13 08:50:53;;;;;;;47.40;15.75;;;;;;;12.69;75.58;100523.28;5049202;28;20033;-83
2023/12/13 08:53:18;;;;;;;33.22;14.20;;;;;;;12.57;75.84;100510.91;5048931;28;20064;-83
2023/12/13 08:55:44;;;;;;;51.45;18.00;;;;;;;12.59;76.42;100514.34;5049454;28;20603;-82
2023/12/13 08:58:11;;;;;;;69.82;18.65;;;;;;;12.54;76.49;100540.88;5047304;28;20485;-82
2023/12/13 09:00:37;;;;;;;60.13;18.00;;;;;;;12.59;77.20;100533.22;5048674;28;20036;-83
2023/12/13 09:03:03;;;;;;;56.97;16.38;;;;;;;12.46;76.87;100508.34;5050030;28;20033;-83
2023/12/13 09:05:28;;;;;;;66.25;19.77;;;;;;;12.31;76.11;100480.09;5049228;28;20028;-82
2023/12/13 09:07:54;;;;;;;57.10;17.60;;;;;;;12.40;76.79;100495.44;5048845;28;20090;-82
2023/12/13 09:10:20;;;;;;;45.15;17.35;;;;;;;12.50;77.16;100499.84;5049022;28;20036;-82
2023/12/13 09:12:46;;;;;;;191.25;28.60;;;;;;;12.51;76.72;100496.16;5048933;28;20040;-82
2023/12/13 09:15:11;;;;;;;40.45;17.52;;;;;;;12.43;76.92;100471.72;5049242;28;20405;-83
2023/12/13 09:17:37;;;;;;;58.20;21.33;;;;;;;12.45;76.03;100479.66;5049192;28;20464;-82
2023/12/13 09:20:03;;;;;;;159.45;27.30;;;;;;;12.41;75.74;100495.31;5048614;28;20800;-83
2023/12/13 09:22:30;;;;;;;66.13;19.70;;;;;;;12.22;76.95;100467.44;5049200;28;20032;-84
2023/12/13 09:24:55;;;;;;;62.60;21.55;;;;;;;12.48;77.50;100500.97;5049221;28;20045;-83
2023/12/13 09:27:22;;;;;;;120.00;23.63;;;;;;;12.57;76.51;100510.09;5054903;28;20033;-81
2023/12/13 09:29:48;;;;;;;97.95;23.75;;;;;;;12.74;76.07;100515.63;5054343;28;20025;-83
2023/12/13 09:32:14;;;;;;;84.70;22.02;;;;;;;12.54;74.87;100495.00;5058852;28;20308;-81
2023/12/13 09:34:39;;;;;;;55.92;17.85;;;;;;;12.64;73.31;100522.84;5074187;28;20084;-83
2023/12/13 09:37:06;;;;;;;79.35;22.25;;;;;;;12.62;73.31;100508.66;5060875;28;20060;-83
2023/12/13 09:39:31;;;;;;;56.95;19.83;;;;;;;12.70;73.33;100510.63;5049471;28;20041;-82
2023/12/13 09:42:02;;;;;;;54.63;20.40;;;;;;;12.71;73.26;100502.41;5049300;28;20025;-83
2023/12/13 09:44:29;;;;;;;60.50;21.20;;;;;;;12.60;73.26;100464.75;5048293;28;20025;-82
2023/12/13 09:46:58;;;;;;;62.15;18.92;;;;;;;12.98;72.84;100494.44;5048753;28;20066;-83
2023/12/13 09:49:26;;;;;;;80.10;18.83;;;;;;;13.08;72.06;100489.94;5048483;28;20025;-84
2023/12/13 09:51:54;;;;;;;41.42;17.27;;;;;;;13.13;71.31;100486.78;5048670;28;20477;-82
2023/12/13 09:54:20;;;;;;;45.97;15.95;;;;;;;13.27;69.79;100490.91;5048081;28;20082;-82
2023/12/13 09:56:45;;;;;;;67.20;17.38;;;;;;;13.36;69.52;100473.81;5048076;28;20451;-82
2023/12/13 09:59:11;;;;;;;70.93;18.23;;;;;;;13.41;69.22;100472.38;5047349;28;20033;-83
2023/12/13 10:01:37;;;;;;;38.95;16.25;;;;;;;13.34;68.97;100459.59;5048300;28;20024;-83
2023/12/13 10:04:03;;;;;;;51.97;17.88;;;;;;;13.40;69.02;100448.19;5049273;28;20455;-84
2023/12/13 10:06:29;;;;;;;65.28;20.92;;;;;;;13.33;68.95;100401.19;5048132;28;20021;-83
2023/12/13 10:09:01;;;;;;;95.30;20.88;;;;;;;13.38;68.33;100420.50;5079292;28;20479;-84
2023/12/13 10:11:27;;;;;;;66.28;19.42;;;;;;;13.33;68.06;100412.00;5047063;28;20078;-80
2023/12/13 10:13:53;;;;;;;76.65;16.58;;;;;;;13.16;67.04;100412.72;5047900;28;20071;-82
2023/12/13 10:16:19;;;;;;;52.85;15.90;;;;;;;13.08;68.02;100406.25;5048269;28;20041;-82
2023/12/13 10:18:46;;;;;;;35.00;14.43;;;;;;;13.02;67.46;100412.19;5048633;28;20071;-84
2023/12/13 10:21:13;;;;;;;36.95;15.55;;;;;;;12.93;68.21;100396.88;5048641;28;20100;-82
2023/12/13 10:23:41;;;;;;;55.78;19.02;;;;;;;12.96;69.04;100399.28;5062416;28;20037;-82
2023/12/13 10:26:07;;;;;;;47.50;19.25;;;;;;;12.95;69.60;100402.97;5087537;28;20057;-80
2023/12/13 10:28:35;;;;;;;47.72;17.70;;;;;;;12.93;69.46;100388.78;5055272;28;20024;-83
2023/12/13 10:31:00;;;;;;;65.93;20.65;;;;;;;12.80;70.14;100382.81;5048385;28;20047;-81
2023/12/13 10:33:26;;;;;;;83.15;22.52;;;;;;;12.96;70.65;100387.63;5052737;28;20112;-84
2023/12/13 10:35:53;;;;;;;46.05;18.95;;;;;;;12.88;70.85;100366.75;5052697;28;20029;-82
2023/12/13 10:38:23;;;;;;;33.03;17.70;;;;;;;12.97;70.30;100373.97;5050619;28;20110;-82
2023/12/13 10:40:49;;;;;;;59.70;19.73;;;;;;;13.04;70.19;100385.88;5051598;28;20080;-79
2023/12/13 10:43:15;;;;;;;47.33;20.55;;;;;;;12.96;71.02;100388.47;5051227;28;20036;-82
2023/12/13 10:45:48;;;;;;;46.75;20.10;;;;;;;12.99;71.07;100371.13;5051139;28;20417;-81
2023/12/13 10:48:16;;;;;;;43.10;17.67;;;;;;;12.83;70.90;100377.13;5048985;28;20036;-84
2023/12/13 10:50:44;;;;;;;99.80;22.85;;;;;;;12.87;71.75;100367.72;5051311;28;20039;-78
2023/12/13 10:53:12;;;;;;;42.08;20.27;;;;;;;13.00;71.70;100349.38;5050636;28;20044;-79
2023/12/13 10:55:39;;;;;;;73.70;20.63;;;;;;;13.25;70.89;100371.34;5051337;28;20031;-78
2023/12/13 10:58:05;;;;;;;70.68;20.40;;;;;;;13.38;70.17;100366.47;5050766;28;20401;-79
2023/12/13 11:00:32;;;;;;;131.63;26.65;;;;;;;13.33;69.69;100357.97;5051121;28;20024;-77
2023/12/13 11:03:13;;;;;;;42.78;18.20;;;;;;;13.47;69.06;100361.03;5049987;28;20037;-78
2023/12/13 11:05:39;;;;;;;68.30;19.27;;;;;;;13.54;68.98;100366.69;5051596;28;20059;-80
2023/12/13 11:08:20;;;;;;;45.38;17.80;;;;;;;13.47;68.88;100343.94;5032760;28;20101;-80